Flight Track Log - Related Links

Times and Time Zones

All times are in EDT time to prevent confusion due to time zone crossing. See the SWA279 flight status page for this flight to view local times or setup timezone preferences in your user account.


Time Position Orientation Groundspeed Altitude Reporting Facility
EDT Latitude Longitude Course Direction KTS MPH feet Rate Location/Type
Wed 12:27:35 PM 39.7833 -104.6667 159° South 197 227 7,400  Level Denver TRACON
Wed 12:28:35 PM 39.7167 -104.6333 159° South 271 312 9,100 1,660 Climbing Denver TRACON
Wed 12:29:09 PM 39.6828 -104.6056 148° Southeast 275 316 10,000 2,313 Climbing Denver Center
Wed 12:30:11 PM 39.5867 -104.6183 186° South 327 376 12,800 2,903 Climbing Denver Center
Wed 12:31:13 PM 39.4947 -104.6367 189° South 337 388 16,000 3,097 Climbing Denver Center
Wed 12:32:15 PM 39.3867 -104.6622 190° South 365 420 19,200 3,097 Climbing Denver Center
Wed 12:33:17 PM 39.2850 -104.6853 190° South 372 428 22,400 2,274 Climbing Denver Center
Wed 12:34:19 PM 39.1733 -104.7089 189° South 380 437 23,900 1,694 Climbing Denver Center
Wed 12:35:21 PM 39.0689 -104.7300 189° South 391 450 25,900 1,887 Climbing Denver Center
Wed 12:36:23 PM 38.9486 -104.6981 168° South 445 512 27,800 1,776 Climbing Denver Center
Wed 12:37:26 PM 38.8289 -104.6442 161° South 450 518 29,600 1,575 Climbing Denver Center
Wed 12:39:03 PM 38.6303 -104.5303 156° South 502 578 32,000 1,597 Climbing Kansas City Center
Wed 12:39:30 PM 38.5664 -104.4600 139° Southeast 513 590 32,900 1,888 Climbing Denver Center
Wed 12:40:32 PM 38.4683 -104.3114 130° Southeast 531 611 34,800 1,355 Climbing Denver Center
Wed 12:41:34 PM 38.3714 -104.1636 130° Southeast 536 617 35,700 1,113 Climbing Denver Center
Wed 12:42:36 PM 38.2719 -104.0206 131° Southeast 537 618 37,100 1,210 Climbing Denver Center
Wed 12:43:38 PM 38.1739 -103.8733 130° Southeast 540 621 38,200 919 Climbing Denver Center
Wed 12:44:40 PM 38.0767 -103.7322 131° Southeast 531 611 39,000 387 Climbing Denver Center
Wed 12:45:42 PM 37.9628 -103.5669 131° Southeast 528 608 39,000  Level Denver Center
Wed 12:46:44 PM 37.8669 -103.4261 131° Southeast 525 604 39,000  Level Denver Center
Wed 12:47:46 PM 37.7692 -103.2875 132° Southeast 524 603 39,000  Level Denver Center
Wed 12:48:48 PM 37.6681 -103.1406 131° Southeast 521 600 39,000  Level Denver Center
Wed 12:49:50 PM 37.5761 -103.0083 131° Southeast 523 602 39,000  Level Denver Center
Wed 12:50:52 PM 37.4692 -102.8556 131° Southeast 523 602 39,000  Level Denver Center
Wed 12:51:54 PM 37.3769 -102.7250 132° Southeast 522 601 39,000  Level Denver Center
Wed 12:52:25 PM 37.3306 -102.6603 132° Southeast 520 598 39,000  Level Albuquerque Center
Wed 12:53:28 PM 37.2225 -102.5064 131° Southeast 525 604 39,000  Level Albuquerque Center
Wed 12:54:30 PM 37.1297 -102.3764 132° Southeast 524 603 39,000  Level Albuquerque Center
Wed 12:55:32 PM 37.0219 -102.2258 132° Southeast 521 600 39,000  Level Albuquerque Center
Wed 12:56:34 PM 36.9303 -102.0969 132° Southeast 521 600 39,000  Level Albuquerque Center
Wed 12:57:36 PM 36.8222 -101.9483 132° Southeast 520 598 39,000  Level Albuquerque Center
Wed 12:58:38 PM 36.7314 -101.8222 132° Southeast 514 592 39,000  Level Albuquerque Center
Wed 12:59:40 PM 36.6253 -101.6758 132° Southeast 513 590 39,000  Level Albuquerque Center
Wed 01:00:42 PM 36.5342 -101.5528 133° Southeast 510 587 39,000  Level Albuquerque Center
Wed 01:01:44 PM 36.4297 -101.4089 132° Southeast 505 581 39,000  Level Albuquerque Center
Wed 01:02:46 PM 36.3394 -101.2844 132° Southeast 506 582 39,000  Level Albuquerque Center
Wed 01:03:48 PM 36.2486 -101.1614 132° Southeast 507 583 39,000  Level Albuquerque Center
Wed 01:04:50 PM 36.1344 -101.0097 133° Southeast 503 579 39,000  Level Albuquerque Center
Wed 01:05:52 PM 36.0414 -100.8836 132° Southeast 498 573 39,000  Level Albuquerque Center
Wed 01:06:54 PM 35.9461 -100.7556 133° Southeast 502 578 39,000  Level Albuquerque Center
Wed 01:07:56 PM 35.8494 -100.6308 134° Southeast 503 579 39,000  Level Albuquerque Center
Wed 01:08:58 PM 35.7547 -100.5033 132° Southeast 503 579 39,000  Level Albuquerque Center
Wed 01:10:00 PM 35.6578 -100.3750 133° Southeast 508 585 39,000  Level Albuquerque Center
Wed 01:11:02 PM 35.5414 -100.2208 133° Southeast 512 589 39,000  Level Albuquerque Center
Wed 01:12:04 PM 35.4444 -100.0944 133° Southeast 512 589 39,000  Level Albuquerque Center
Wed 01:13:06 PM 35.3475 -99.9675 133° Southeast 510 587 39,000  Level Albuquerque Center
Wed 01:14:09 PM 35.2511 -99.8425 133° Southeast 509 586 39,000  Level Albuquerque Center
Wed 01:15:11 PM 35.1547 -99.7175 133° Southeast 506 582 39,000  Level Albuquerque Center
Wed 01:16:13 PM 35.0581 -99.5933 134° Southeast 505 581 39,000  Level Albuquerque Center
Wed 01:17:15 PM 34.9442 -99.4464 133° Southeast 500 575 39,000  Level Albuquerque Center
Wed 01:18:18 PM 34.8411 -99.3186 134° Southeast 492 566 39,000  Level Fort Worth Center
Wed 01:19:18 PM 34.7469 -99.1978 133° Southeast 485 558 39,000  Level Fort Worth Center
Wed 01:20:18 PM 34.6547 -99.0797 134° Southeast 485 558 39,000  Level Fort Worth Center
Wed 01:21:18 PM 34.5744 -98.9772 134° Southeast 485 558 39,000  Level Fort Worth Center
Wed 01:22:18 PM 34.4800 -98.8594 134° Southeast 485 558 39,000  Level Fort Worth Center
Wed 01:23:18 PM 34.3833 -98.7397 134° Southeast 485 558 39,000  Level Fort Worth Center
Wed 01:24:19 PM 34.2906 -98.6225 134° Southeast 485 558 39,000  Level Fort Worth Center
Wed 01:25:18 PM 34.1997 -98.5083 134° Southeast 485 558 39,000  Level Fort Worth Center
Wed 01:26:18 PM 34.1028 -98.3867 134° Southeast 485 558 39,000  Level Fort Worth Center
Wed 01:27:18 PM 34.0014 -98.2553 133° Southeast 491 565 39,000  Level Fort Worth Center
Wed 01:28:18 PM 33.9061 -98.1417 135° Southeast 485 558 39,000  Level Fort Worth Center
Wed 01:29:18 PM 33.8128 -98.0233 133° Southeast 485 558 39,000  Level Fort Worth Center
Wed 01:30:18 PM 33.7194 -97.9081 134° Southeast 485 558 39,000  Level Fort Worth Center
Wed 01:31:18 PM 33.6239 -97.7900 134° Southeast 483 556 39,000  Level Fort Worth Center
Wed 01:32:18 PM 33.5322 -97.6750 134° Southeast 483 556 39,000  Level Fort Worth Center
Wed 01:33:18 PM 33.4367 -97.5603 135° Southeast 483 556 39,000  Level Fort Worth Center
Wed 01:34:18 PM 33.3428 -97.4483 135° Southeast 483 556 39,000  Level Fort Worth Center
Wed 01:35:18 PM 33.2592 -97.3464 134° Southeast 478 550 39,000  Level Fort Worth Center
Wed 01:36:18 PM 33.1672 -97.2322 134° Southeast 478 550 39,000  Level Fort Worth Center
Wed 01:37:18 PM 33.0731 -97.1158 134° Southeast 478 550 39,000  Level Fort Worth Center
Wed 01:38:18 PM 32.9664 -96.9975 137° Southeast 478 550 39,000  Level Fort Worth Center
Wed 01:39:18 PM 32.8658 -96.9064 143° Southeast 470 541 39,000  Level Fort Worth Center
Wed 01:40:18 PM 32.7489 -96.8947 175° South 419 482 39,000  Level Fort Worth Center
Wed 01:41:18 PM 32.6297 -96.8881 177° South 424 488 39,000  Level Fort Worth Center
Wed 01:42:18 PM 32.5150 -96.8836 178° South 423 487 39,000  Level Fort Worth Center
Wed 01:43:18 PM 32.4083 -96.8744 176° South 423 487 39,000  Level Fort Worth Center
Wed 01:44:18 PM 32.2894 -96.8703 178° South 423 487 39,000  Level Fort Worth Center
Wed 01:45:18 PM 32.1703 -96.8661 178° South 423 487 39,000  Level Fort Worth Center
Wed 01:47:28 PM 31.9167 -96.8497 177° South 425 489 39,000  Level Houston Center
Wed 01:48:30 PM 31.7964 -96.8422 177° South 427 491 39,000  Level Houston Center
Wed 01:49:32 PM 31.6772 -96.8347 177° South 424 488 39,000  Level Houston Center
Wed 01:50:34 PM 31.5553 -96.8131 171° South 434 499 39,000  Level Houston Center
Wed 01:51:35 PM 31.4122 -96.7908 172° South 438 504 39,000 -927 Level Houston Center
Wed 01:52:37 PM 31.2922 -96.7719 172° South 430 495 37,100 -2,274 Descending Houston Center
Wed 01:53:39 PM 31.1725 -96.7522 172° South 427 491 34,300 -3,097 Descending Houston Center
Wed 01:54:41 PM 31.0467 -96.7297 171° South 443 510 30,700 -3,145 Descending Houston Center
Wed 01:55:43 PM 30.9247 -96.6633 155° Southeast 476 548 27,800 -2,903 Descending Houston Center
Wed 01:56:45 PM 30.8092 -96.5886 151° Southeast 472 543 24,700 -2,903 Descending Houston Center
Wed 01:57:47 PM 30.6931 -96.5161 152° Southeast 461 531 21,800 -2,516 Descending Houston Center
Wed 01:58:49 PM 30.5869 -96.4475 151° Southeast 445 512 19,500 -2,032 Descending Houston Center
Wed 01:59:51 PM 30.4867 -96.3842 151° Southeast 412 474 17,600 -2,081 Descending Houston Center
Wed 02:00:53 PM 30.3922 -96.3236 151° Southeast 387 445 15,200 -2,371 Descending Houston Center
Wed 02:01:55 PM 30.2853 -96.2564 152° Southeast 371 427 12,700 -2,050 Descending Houston Center
Wed 02:02:53 PM 30.2014 -96.2039 152° Southeast 352 405 11,100 -871 Descending Houston Center
Wed 02:03:59 PM 30.1158 -96.1594 156° South 334 384 10,900 -94 Descending Houston Center
Wed 02:05:01 PM 30.0372 -96.1069 150° Southeast 328 377 10,900  Level Houston Center
Wed 02:06:03 PM 29.9703 -96.0314 136° Southeast 336 387 10,900 -290 Level Houston Center
Wed 02:07:05 PM 29.8964 -95.9497 136° Southeast 327 376 10,300 -976 Descending Houston Center
Wed 02:08:06 PM 29.8333 -95.8792 136° Southeast 296 341 8,900 -1,403 Descending Houston Center
Wed 02:09:09 PM 29.7789 -95.8197 137° Southeast 293 337 7,400 -1,426 Descending Houston Center
Wed 02:10:08 PM 29.7169 -95.7506 136° Southeast 290 334 6,000 -694 Descending Houston Center
Wed 02:11:10 PM 29.6564 -95.6833 136° Southeast 282 325 6,000  Level Houston Center
Wed 02:12:15 PM 29.6122 -95.6097 125° Southeast 273 314 6,000 -567 Level Houston Center
Wed 02:13:17 PM 29.5908 -95.5278 107° East 268 308 4,800 -1,065 Descending Houston Center
Wed 02:14:19 PM 29.5694 -95.4492 107° East 263 303 3,800 -969 Descending Houston Center
Wed 02:15:27 PM 29.5822 -95.3725 79° East 182 209 2,700 -1,220 Descending Houston Center
Wed 02:16:22 PM 29.5975 -95.3322 66° East 147 169 1,300 -1,231 Descending Houston Center
Wed 02:17:24 PM 29.6278 -95.2972 45° Northeast 137 158 300 -571 Descending Houston Center
Wed 02:18:28 PM 29.6525 -95.2719 42° Northeast 146 168 100 -188 Descending Houston Center
Wed 02:20:00 PM 29.6454 -95.2789 115° Southeast  Level Estimated

Login

Don't have an account? Register now (free) for customized features, flight alerts, and more!